AirNav   TITAN Aviation Fuels
 
 595 users online  

73CA Bear Valley Airport
Bear Valley, California, USA

GOING TO BEAR VALLEY?


FAA INFORMATION EFFECTIVE 03 NOVEMBER 2022

Location

FAA Identifier: 73CA
Lat/Long: 38-27-31.6820N 120-02-23.6710W
38-27.528033N 120-02.394517W
38.4588006,-120.0399086
(estimated)
Elevation: 7073 ft. / 2155.9 m (surveyed)
Variation: 16E (1985)
From city: 1 mile SE of BEAR VALLEY, CA
Time zone: UTC -8 (UTC -7 during Daylight Saving Time)
Zip code: 95364

Airport Operations

Airport use: Private use. Permission required prior to landing
Activation date: 11/1967
Control tower: no
ARTCC: OAKLAND CENTER
FSS: RANCHO MURIETA FLIGHT SERVICE STATION
Attendance: UNATNDD
Wind indicator: no
Segmented circle: no

Nearby radio navigation aids

VOR radial/distance  VOR name  Freq  Var
HNWr099/36.9HANGTOWN VOR/DME115.5017E

Airport Services

Airframe service: NONE
Powerplant service: NONE

Runway Information

Runway 1/19

Dimensions: 3200 x 50 ft. / 975 x 15 m
Surface: dirt/treated
RUNWAY 1  RUNWAY 19
Traffic pattern: leftleft

Airport Ownership and Management from official FAA records

Ownership: Privately-owned
Owner: TBI LAND & CATTLE CO.
1960 THE ALAMEDA, STE 20
SAN JOSE, CA 95126
Phone (408) 246-7500
Manager: C. J. TOENISKOETTER
1960 THE ALAMEDA, STE 20
SAN JOSE, CA 95126
Phone (408) 246-7500

Additional Remarks

TREES & POLES ON SIDES OF RWY.
SUMMER USE ONLY.
CATTLE MAY BE ON RWY.
FOR CD CTC OAKLAND ARTCC AT 510-745-3380.

Instrument Procedures

There are no published instrument procedures at 73CA.

Some nearby airports with instrument procedures:

KTVL - Lake Tahoe Airport (26 nm N)
O22 - Columbia Airport (31 nm SW)
KCPU - Calaveras County Airport - Maury Rasmussen Field (34 nm SW)
KMEV - Minden-Tahoe Airport (35 nm N)
KJAQ - Westover Field / Amador County Airport (36 nm W)
 
Loc | Ops | Rwys | IFR | FBO | Links
Com | Nav | Svcs | Stats | Notes
Area around 73CA (Bear Valley Airport)
 
Road maps at: MapQuest Bing Google
 
Aerial photo
WARNING: Photo may not be current or correct
Aerial photo of 73CA (Bear Valley Airport)
Photo by Kempton Izuno

Do you have a better or more recent aerial photo of Bear Valley Airport that you would like to share? If so, please send us your photo.

 
Sectional chart

 
Airport distance calculator
Flying to Bear Valley Airport? Find the distance to fly.

From to 73CA

Sunrise and sunset
Times for 28-Nov-2022
 Local
(UTC-8)
 Zulu
(UTC)
Morning civil twilight06:2814:28
Sunrise06:5714:57
Sunset16:4000:40
Evening civil twilight17:0901:09

Current date and time
Zulu (UTC)  28-Nov-2022 12:18:14
Local (UTC-8)  28-Nov-2022 04:18:14
 
METAR
KBAN 
25nm E 
281152Z AUTO 21007G18KT 170V240 10SM CLR 04/M07 A2986 RMK AO2 SLP081 T00391067 10044 20028 56016 $
KTVL 
27nm N 
281153Z AUTO 16011KT 10SM BKN050 02/M07 A2990 RMK AO2 SLP105 T00221067 10039 20017 56015
KO22 
31nm SW 
281155Z AUTO 00000KT 10SM FEW080 02/00 A2995 RMK A01
KCPU 
34nm SW 
281155Z AUTO 21004KT 10SM CLR 04/00 A2996 RMK AO2 T00370002 10067 20034
KMEV 
35nm N 
281155Z AUTO 22018KT 1/4SM -RA HZ SCT033 BKN060 07/M06 A2985 RMK AO2
KJAQ 
36nm W 
281155Z AUTO 00000KT 10SM SCT085 07/00 A2994 RMK AO1 T00691001 10097 20066
KPVF 
37nm NW 
281155Z AUTO 13003KT 10SM OVC075 09/M03 A2996 RMK AO1
KCXP 
46nm N 
281155Z AUTO VRB05G16KT 10SM BKN055 08/M07 A2986 RMK AO2
TAF
KTVL 
27nm N 
281120Z 2812/2912 18010G20KT P6SM BKN045 WS020/25040KT FM281800 20013G24KT P6SM BKN035 BKN045 FM290200 19004KT P6SM SCT035
NOTAMs
Click for the latest NOTAMs
NOTAMs are issued by the DoD/FAA and will open in a separate window not controlled by AirNav.

 

 
 

Would you like to see your business listed on this page?

 If your business provides an interesting product or service to pilots, flight crews, aircraft, or users of the Bear Valley Airport, you should consider listing it here.  To start the listing process, click on the button below
 
Add a business
 

Other Pages about Bear Valley Airport

Update a link
 
Copyright © AirNav, LLC. All rights reserved. Privacy Policy  Contact